createdAt,value
2022-10-13T00:01:16.300Z,11.77
2022-10-13T00:03:47.116Z,10.93
2022-10-13T00:08:50.830Z,8.90
2022-10-13T00:11:23.669Z,10.55
2022-10-13T00:13:52.816Z,13.88
2022-10-13T00:16:21.960Z,6.97
2022-10-13T00:18:49.787Z,10.07
2022-10-13T00:21:26.540Z,10.88
2022-10-13T00:23:54.665Z,10.15
2022-10-13T00:26:24.635Z,15.90
2022-10-13T00:28:53.031Z,10.60
2022-10-13T00:31:31.620Z,13.85
2022-10-13T00:34:01.206Z,13.52
2022-10-13T00:36:29.222Z,11.23
2022-10-13T00:38:57.273Z,11.32
2022-10-13T00:41:25.154Z,11.68
2022-10-13T00:44:57.955Z,10.38
2022-10-13T00:47:37.539Z,13.18
2022-10-13T00:50:06.768Z,9.27
2022-10-13T00:52:35.381Z,12.35
2022-10-13T00:55:04.222Z,11.95
2022-10-13T00:57:31.773Z,10.25
2022-10-13T01:00:00.175Z,10.05
2022-10-13T01:02:43.631Z,8.60
2022-10-13T01:05:11.429Z,10.02
2022-10-13T01:07:38.423Z,11.82
2022-10-13T01:10:06.735Z,13.70
2022-10-13T01:13:01.325Z,10.63
2022-10-13T01:15:40.761Z,8.77
2022-10-13T01:18:25.266Z,10.20
2022-10-13T01:21:05.577Z,11.65
2022-10-13T01:24:40.012Z,11.18
2022-10-13T01:27:40.133Z,7.85
2022-10-13T01:30:22.094Z,15.82
2022-10-13T01:33:04.371Z,8.02
2022-10-13T01:36:04.965Z,10.77
2022-10-13T01:39:16.373Z,13.57
2022-10-13T01:41:51.003Z,12.02
2022-10-13T01:44:29.390Z,12.23
2022-10-13T01:46:57.325Z,11.55
2022-10-13T01:49:28.780Z,13.50
2022-10-13T01:52:01.792Z,13.75
2022-10-13T01:54:29.244Z,23.48
2022-10-13T01:56:58.034Z,9.80
2022-10-13T01:59:27.358Z,9.90
2022-10-13T02:02:23.450Z,10.73
2022-10-13T02:05:21.868Z,10.32
2022-10-13T02:08:00.675Z,10.60
2022-10-13T02:10:49.577Z,8.13
2022-10-13T02:13:19.768Z,14.45
2022-10-13T02:15:53.321Z,12.70
2022-10-13T02:18:25.857Z,12.23
2022-10-13T02:20:53.860Z,10.55
2022-10-13T02:23:21.161Z,11.35
2022-10-13T02:25:50.913Z,8.88
2022-10-13T02:28:19.022Z,10.48
2022-10-13T02:30:46.777Z,21.17
2022-10-13T02:33:15.531Z,12.30
2022-10-13T02:35:43.788Z,12.88
2022-10-13T02:38:11.622Z,9.00
2022-10-13T02:40:38.853Z,6.75
2022-10-13T02:43:05.695Z,10.40
2022-10-13T02:45:32.775Z,13.20
2022-10-13T02:47:59.577Z,12.05
2022-10-13T02:50:26.532Z,9.95
2022-10-13T02:52:53.770Z,11.73
2022-10-13T02:55:20.767Z,9.38
2022-10-13T02:57:51.903Z,17.40
2022-10-13T03:00:18.905Z,12.15
2022-10-13T03:02:45.681Z,11.32
2022-10-13T03:05:12.603Z,11.35
2022-10-13T03:07:39.881Z,9.75
2022-10-13T03:10:07.592Z,13.88
2022-10-13T03:12:34.914Z,10.95
2022-10-13T03:15:01.746Z,9.82
2022-10-13T03:17:29.013Z,7.88
2022-10-13T03:19:55.940Z,18.52
2022-10-13T03:22:23.314Z,13.15
2022-10-13T03:24:52.093Z,9.75
2022-10-13T03:27:19.320Z,10.68
2022-10-13T03:29:46.196Z,15.30
2022-10-13T03:32:13.222Z,13.98
2022-10-13T03:34:40.584Z,10.98
2022-10-13T03:37:07.501Z,8.80
2022-10-13T03:39:41.827Z,11.25
2022-10-13T03:42:09.983Z,13.50
2022-10-13T03:44:39.728Z,11.95
2022-10-13T03:47:32.792Z,9.50
2022-10-13T03:49:59.649Z,14.25
2022-10-13T03:52:26.912Z,10.98
2022-10-13T03:54:53.897Z,11.00
2022-10-13T03:57:20.972Z,13.65
2022-10-13T03:59:47.949Z,10.93
2022-10-13T04:02:14.824Z,12.48
2022-10-13T04:04:42.217Z,15.05
2022-10-13T04:07:09.413Z,10.00
2022-10-13T04:09:36.290Z,11.95
2022-10-13T04:12:04.072Z,9.90
2022-10-13T04:14:30.996Z,13.02
2022-10-13T04:17:03.982Z,15.20
2022-10-13T04:19:31.013Z,14.93
2022-10-13T04:22:03.612Z,12.32
2022-10-13T04:24:30.488Z,10.52
2022-10-13T04:26:57.524Z,10.15
2022-10-13T04:29:24.569Z,13.05
2022-10-13T04:31:52.027Z,12.48
2022-10-13T04:34:20.699Z,10.60
2022-10-13T04:36:51.856Z,12.45
2022-10-13T04:39:18.811Z,10.10
2022-10-13T04:41:45.712Z,11.75
2022-10-13T04:44:12.782Z,12.73
2022-10-13T04:46:39.801Z,11.82
2022-10-13T04:49:06.863Z,10.73
2022-10-13T04:51:34.560Z,11.38
2022-10-13T04:54:02.810Z,15.07
2022-10-13T04:56:29.837Z,9.70
2022-10-13T04:59:01.652Z,13.23
2022-10-13T05:01:28.608Z,12.93
2022-10-13T05:04:01.753Z,8.95
2022-10-13T05:06:35.479Z,9.88
2022-10-13T05:09:02.853Z,11.07
2022-10-13T05:11:31.114Z,11.68
2022-10-13T05:13:59.421Z,13.27
2022-10-13T05:16:26.462Z,12.88
2022-10-13T05:18:55.399Z,17.85
2022-10-13T05:21:28.549Z,11.55
2022-10-13T05:23:57.484Z,10.27
2022-10-13T05:26:29.155Z,13.73
2022-10-13T05:29:00.861Z,10.85
2022-10-13T05:31:34.012Z,16.60
2022-10-13T05:34:01.528Z,11.57
2022-10-13T05:36:34.673Z,10.80
2022-10-13T05:39:05.467Z,14.32
2022-10-13T05:41:32.757Z,11.52
2022-10-13T05:44:04.178Z,11.43
2022-10-13T05:46:31.217Z,13.65
2022-10-13T05:48:58.432Z,12.10
2022-10-13T05:51:31.242Z,17.05
2022-10-13T05:54:14.476Z,11.05
2022-10-13T05:57:03.434Z,9.30
2022-10-13T05:59:36.864Z,13.25
2022-10-13T06:02:07.353Z,13.07
2022-10-13T06:04:49.025Z,12.80
2022-10-13T06:07:16.474Z,11.63
2022-10-13T06:09:46.598Z,12.50
2022-10-13T06:12:13.577Z,18.50
2022-10-13T06:14:41.394Z,14.45
2022-10-13T06:17:11.614Z,18.73
2022-10-13T06:19:43.329Z,18.15
2022-10-13T06:22:10.254Z,14.52
2022-10-13T06:24:37.245Z,13.70
2022-10-13T06:27:09.877Z,17.58
2022-10-13T06:29:37.089Z,12.75
2022-10-13T06:32:04.659Z,19.13
2022-10-13T06:34:31.587Z,12.82
2022-10-13T06:36:58.443Z,13.60
2022-10-13T06:39:26.363Z,11.93
2022-10-13T06:41:55.171Z,15.10
2022-10-13T06:44:31.775Z,14.93
2022-10-13T06:47:03.195Z,13.68
2022-10-13T06:49:30.206Z,17.05
2022-10-13T06:51:57.254Z,13.73
2022-10-13T06:54:24.101Z,13.60
2022-10-13T06:56:51.304Z,14.35
2022-10-13T06:59:18.476Z,17.25
2022-10-13T07:01:45.989Z,16.33
2022-10-13T07:04:13.352Z,16.85
2022-10-13T07:06:40.562Z,16.15
2022-10-13T07:09:08.641Z,13.27
2022-10-13T07:11:36.028Z,12.45
2022-10-13T07:14:02.974Z,16.38
2022-10-13T07:16:30.781Z,16.08
2022-10-13T07:18:58.285Z,14.43
2022-10-13T07:21:25.340Z,15.98
2022-10-13T07:23:52.167Z,13.55
2022-10-13T07:26:18.992Z,10.75
2022-10-13T07:28:46.405Z,15.77
2022-10-13T07:31:18.165Z,15.35
2022-10-13T07:33:48.038Z,16.05
2022-10-13T07:36:17.530Z,11.35
2022-10-13T07:38:44.961Z,16.27
2022-10-13T07:41:13.560Z,16.35
2022-10-13T07:43:40.748Z,15.85
2022-10-13T07:46:08.987Z,14.40
2022-10-13T07:48:36.785Z,11.25
2022-10-13T07:51:10.424Z,18.10
2022-10-13T07:53:38.082Z,16.25
2022-10-13T07:56:08.403Z,13.02
2022-10-13T07:58:39.083Z,17.05
2022-10-13T08:01:06.353Z,14.52
2022-10-13T08:03:41.025Z,17.75
2022-10-13T08:06:14.707Z,15.75
2022-10-13T08:08:41.680Z,18.83
2022-10-13T08:11:16.591Z,11.60
2022-10-13T08:13:51.917Z,15.43
2022-10-13T08:16:22.521Z,13.35
2022-10-13T08:18:50.549Z,15.98
2022-10-13T08:21:52.778Z,18.55
2022-10-13T08:24:14.524Z,13.95
2022-10-13T08:26:43.426Z,16.73
2022-10-13T08:29:24.148Z,17.00
2022-10-13T08:31:53.565Z,13.93
2022-10-13T08:34:22.301Z,14.95
2022-10-13T08:39:44.202Z,13.70
2022-10-13T08:42:22.494Z,10.30
2022-10-13T08:45:39.691Z,15.43
2022-10-13T08:48:36.582Z,15.32
2022-10-13T08:51:07.932Z,13.43
2022-10-13T08:53:40.334Z,12.15
2022-10-13T08:56:25.626Z,20.52
2022-10-13T08:58:54.652Z,17.52
2022-10-13T09:01:35.913Z,16.60
2022-10-13T09:04:33.086Z,15.85
2022-10-13T09:07:10.774Z,13.13
2022-10-13T09:09:38.578Z,15.55
2022-10-13T09:12:06.491Z,21.67
2022-10-13T09:14:37.148Z,13.25
2022-10-13T09:17:22.484Z,11.77
2022-10-13T09:20:06.570Z,12.18
2022-10-13T09:25:31.834Z,14.88
2022-10-13T09:28:01.073Z,11.88
2022-10-13T09:30:42.958Z,14.75
2022-10-13T09:33:11.748Z,13.30
2022-10-13T09:35:43.843Z,15.10
2022-10-13T09:38:25.062Z,14.30
2022-10-13T09:41:10.302Z,16.80
2022-10-13T09:43:45.484Z,13.35
2022-10-13T09:47:00.023Z,15.88
2022-10-13T09:49:39.003Z,14.07
2022-10-13T09:52:12.220Z,11.05
2022-10-13T09:54:45.420Z,22.15
2022-10-13T09:57:40.118Z,11.40
2022-10-13T10:00:19.429Z,15.45
2022-10-13T10:03:14.573Z,16.25
2022-10-13T10:05:52.030Z,15.95
2022-10-13T10:09:08.378Z,13.85
2022-10-13T10:11:43.549Z,14.57
2022-10-13T10:14:27.302Z,15.93
2022-10-13T10:17:09.469Z,16.02
2022-10-13T10:19:57.671Z,16.73
2022-10-13T10:22:33.449Z,20.52
2022-10-13T10:25:20.161Z,14.55
2022-10-13T10:31:51.394Z,16.33
2022-10-13T10:34:51.213Z,16.98
2022-10-13T10:37:57.841Z,14.73
2022-10-13T10:40:45.955Z,14.40
2022-10-13T10:43:35.476Z,18.05
2022-10-13T10:46:02.605Z,15.52
2022-10-13T10:48:39.532Z,16.95
2022-10-13T10:51:09.055Z,18.58
2022-10-13T10:54:03.646Z,17.67
2022-10-13T10:56:43.654Z,16.92
2022-10-13T10:59:27.852Z,14.05
2022-10-13T11:02:08.583Z,13.90
2022-10-13T11:04:52.827Z,15.05
2022-10-13T11:07:24.798Z,15.02
2022-10-13T11:10:21.486Z,14.65
2022-10-13T11:12:51.350Z,19.67
2022-10-13T11:15:43.698Z,19.10
2022-10-13T11:18:54.600Z,15.32
2022-10-13T11:21:25.651Z,13.63
2022-10-13T11:23:52.753Z,15.05
2022-10-13T11:26:43.205Z,18.50
2022-10-13T11:29:19.836Z,18.02
2022-10-13T11:31:51.813Z,16.52
2022-10-13T11:34:31.539Z,14.93
2022-10-13T11:37:01.969Z,19.55
2022-10-13T11:39:59.660Z,18.65
2022-10-13T11:42:54.393Z,20.13
2022-10-13T11:45:35.218Z,13.85
2022-10-13T11:48:33.483Z,12.88
2022-10-13T11:51:20.868Z,14.00
2022-10-13T11:54:06.274Z,21.17
2022-10-13T11:56:54.989Z,16.23
2022-10-13T11:59:33.364Z,18.35
2022-10-13T12:02:23.513Z,15.50
2022-10-13T12:05:27.857Z,10.95
2022-10-13T12:08:00.526Z,12.25
2022-10-13T12:10:36.504Z,16.63
2022-10-13T12:13:06.912Z,15.90
2022-10-13T12:15:36.640Z,17.35
2022-10-13T12:18:23.231Z,13.25
2022-10-13T12:20:59.322Z,11.25
2022-10-13T12:23:27.757Z,11.93
2022-10-13T12:25:58.577Z,12.30
2022-10-13T12:28:30.795Z,13.30
2022-10-13T12:31:00.165Z,13.88
2022-10-13T12:33:37.698Z,14.68
2022-10-13T12:36:20.069Z,14.63
2022-10-13T12:38:54.483Z,13.43
2022-10-13T12:41:31.971Z,12.50
2022-10-13T12:44:01.194Z,11.20
2022-10-13T12:46:45.140Z,13.05
2022-10-13T12:49:32.552Z,9.95
2022-10-13T12:52:09.754Z,11.07
2022-10-13T12:54:39.841Z,10.15
2022-10-13T12:57:19.659Z,11.50
2022-10-13T12:59:47.261Z,11.43
2022-10-13T13:02:31.614Z,12.68
2022-10-13T13:04:59.360Z,13.90
2022-10-13T13:07:33.877Z,12.73
2022-10-13T13:10:08.191Z,14.90
2022-10-13T13:12:36.780Z,15.38
2022-10-13T13:15:26.086Z,16.73
2022-10-13T13:17:58.752Z,12.27
2022-10-13T13:20:33.569Z,14.65
2022-10-13T13:23:00.919Z,15.75
2022-10-13T13:25:27.842Z,12.15
2022-10-13T13:27:55.061Z,15.32
2022-10-13T13:30:23.908Z,15.00
2022-10-13T13:32:51.138Z,13.65
2022-10-13T13:35:23.688Z,11.95
2022-10-13T13:37:52.231Z,12.68
2022-10-13T13:40:26.053Z,21.38
2022-10-13T13:42:53.240Z,12.70
2022-10-13T13:45:26.221Z,12.93
2022-10-13T13:47:57.952Z,14.25
2022-10-13T13:50:33.635Z,11.82
2022-10-13T13:53:00.809Z,16.58
2022-10-13T13:55:29.607Z,13.38
2022-10-13T13:57:57.676Z,15.82
2022-10-13T14:00:24.872Z,16.10
2022-10-13T14:02:57.001Z,16.92
2022-10-13T14:05:24.225Z,10.23
2022-10-13T14:07:59.834Z,15.68
2022-10-13T14:10:27.867Z,12.90
2022-10-13T14:12:54.681Z,15.95
2022-10-13T14:15:25.684Z,15.15
2022-10-13T14:17:54.611Z,12.18
2022-10-13T14:20:22.087Z,13.50
2022-10-13T14:22:49.121Z,16.85
2022-10-13T14:25:16.775Z,14.48
2022-10-13T14:27:45.706Z,15.43
2022-10-13T14:30:13.974Z,14.35
2022-10-13T14:32:40.919Z,12.93
2022-10-13T14:35:08.203Z,16.45
2022-10-13T14:37:35.709Z,15.43
2022-10-13T14:40:03.077Z,15.27
2022-10-13T14:42:30.120Z,13.70
2022-10-13T14:44:56.904Z,13.60
2022-10-13T14:47:24.163Z,16.33
2022-10-13T14:49:51.025Z,13.55
2022-10-13T14:52:18.180Z,14.77
2022-10-13T14:54:45.416Z,21.50
2022-10-13T14:57:15.921Z,15.15
2022-10-13T14:59:43.788Z,14.05
2022-10-13T15:02:11.787Z,13.27
2022-10-13T15:04:49.807Z,15.40
2022-10-13T15:07:18.342Z,9.85
2022-10-13T15:09:53.234Z,10.38
2022-10-13T15:12:31.974Z,14.07
2022-10-13T15:14:58.824Z,12.55
2022-10-13T15:17:25.798Z,11.23
2022-10-13T15:19:52.977Z,12.23
2022-10-13T15:22:20.238Z,14.40
2022-10-13T15:24:47.607Z,14.05
2022-10-13T15:27:14.692Z,13.65
2022-10-13T15:29:46.672Z,11.60
2022-10-13T15:32:18.419Z,16.17
2022-10-13T15:34:50.594Z,15.60
2022-10-13T15:37:17.581Z,12.65
2022-10-13T15:39:44.650Z,17.80
2022-10-13T15:42:12.324Z,13.38
2022-10-13T15:47:26.169Z,16.48
2022-10-13T15:49:53.198Z,15.25
2022-10-13T15:52:21.195Z,16.15
2022-10-13T15:54:51.277Z,20.77
2022-10-13T15:57:18.647Z,14.65
2022-10-13T15:59:45.629Z,14.07
2022-10-13T16:02:12.623Z,21.42
2022-10-13T16:04:39.572Z,24.23
2022-10-13T16:07:06.531Z,18.20
2022-10-13T16:09:33.414Z,18.85
2022-10-13T16:12:00.289Z,18.60
2022-10-13T16:14:27.314Z,14.82
2022-10-13T16:16:54.198Z,16.27
2022-10-13T16:19:21.184Z,17.67
2022-10-13T16:21:48.907Z,17.65
2022-10-13T16:24:16.078Z,17.60
2022-10-13T16:26:43.008Z,12.73
2022-10-13T16:29:10.258Z,17.73
2022-10-13T16:31:37.213Z,25.80
2022-10-13T16:34:04.185Z,22.55
2022-10-13T16:36:31.276Z,15.57
2022-10-13T16:38:58.872Z,15.32
2022-10-13T16:41:25.785Z,14.65
2022-10-13T16:44:17.853Z,24.90
2022-10-13T16:46:45.355Z,16.63
2022-10-13T16:49:12.725Z,24.13
2022-10-13T16:51:39.519Z,35.30
2022-10-13T16:54:06.674Z,28.05
2022-10-13T16:56:33.945Z,16.23
2022-10-13T16:59:04.489Z,19.33
2022-10-13T17:01:33.540Z,20.23
2022-10-13T17:04:01.261Z,18.90
2022-10-13T17:06:29.422Z,24.80
2022-10-13T17:09:03.040Z,18.98
2022-10-13T17:11:33.477Z,19.05
2022-10-13T17:14:01.693Z,23.52
2022-10-13T17:16:33.324Z,17.75
2022-10-13T17:19:00.282Z,18.20
2022-10-13T17:21:33.693Z,20.70
2022-10-13T17:24:00.657Z,36.90
2022-10-13T17:26:27.510Z,35.47
2022-10-13T17:28:55.130Z,22.55
2022-10-13T17:31:24.113Z,28.73
2022-10-13T17:33:51.793Z,23.13
2022-10-13T17:36:28.053Z,22.13
2022-10-13T17:38:56.667Z,28.08
2022-10-13T17:41:24.605Z,26.58
2022-10-13T17:43:52.106Z,22.63
2022-10-13T17:52:09.699Z,24.15
2022-10-13T17:54:36.803Z,27.80
2022-10-13T17:57:05.074Z,24.88
2022-10-13T17:59:31.948Z,36.90
2022-10-13T18:02:02.078Z,28.02
2022-10-13T18:04:29.872Z,34.22
2022-10-13T18:06:56.676Z,31.45
2022-10-13T18:09:24.501Z,29.63
2022-10-13T18:11:54.037Z,24.33
2022-10-13T18:14:23.613Z,30.48
2022-10-13T18:16:52.508Z,29.08
2022-10-13T18:22:12.591Z,25.70
2022-10-13T18:24:39.459Z,31.55
2022-10-13T18:27:06.328Z,31.00
2022-10-13T18:29:35.525Z,26.27
2022-10-13T18:32:06.030Z,32.45
2022-10-13T18:34:33.042Z,35.65
2022-10-13T18:37:00.020Z,28.27
2022-10-13T18:42:19.874Z,30.83
2022-10-13T18:44:46.765Z,31.08
2022-10-13T18:47:13.780Z,41.97
2022-10-13T18:49:40.891Z,36.95
2022-10-13T18:52:07.874Z,41.05
2022-10-13T18:54:39.046Z,46.90
2022-10-13T18:57:06.138Z,47.72
2022-10-13T18:59:34.168Z,45.00
2022-10-13T19:02:01.115Z,48.80
2022-10-13T19:04:28.644Z,51.63
2022-10-13T19:06:55.522Z,49.63
2022-10-13T19:09:24.204Z,51.22
2022-10-13T19:11:51.072Z,47.80
2022-10-13T19:14:21.169Z,46.22
2022-10-13T19:16:48.389Z,43.58
2022-10-13T19:19:15.480Z,58.47
2022-10-13T19:21:42.889Z,47.00
2022-10-13T19:24:10.804Z,47.47
2022-10-13T19:26:38.069Z,44.45
2022-10-13T19:29:13.674Z,44.65
2022-10-13T19:34:34.345Z,46.67
2022-10-13T19:37:03.470Z,50.42
2022-10-13T19:39:30.587Z,49.42
2022-10-13T19:41:58.273Z,52.10
2022-10-13T19:44:25.839Z,50.40
2022-10-13T19:46:53.397Z,46.60
2022-10-13T19:49:25.284Z,46.65
2022-10-13T19:51:54.011Z,50.88
2022-10-13T19:54:22.191Z,56.80
2022-10-13T19:56:50.575Z,47.17
2022-10-13T19:59:19.776Z,73.15
2022-10-13T20:01:47.125Z,58.63
2022-10-13T20:04:17.933Z,58.47
2022-10-13T20:07:09.612Z,56.13
2022-10-13T20:09:36.533Z,56.72
2022-10-13T20:12:03.846Z,61.53
2022-10-13T20:14:31.781Z,69.03
2022-10-13T20:16:58.594Z,70.63
2022-10-13T20:19:25.622Z,59.90
2022-10-13T20:21:52.948Z,57.33
2022-10-13T20:24:23.706Z,60.22
2022-10-13T20:26:50.747Z,58.40
2022-10-13T20:29:22.274Z,55.15
2022-10-13T20:31:49.385Z,56.45
2022-10-13T20:34:16.373Z,53.28
2022-10-13T20:36:43.208Z,48.97
2022-10-13T20:39:10.651Z,50.35
2022-10-13T20:41:37.535Z,58.35
2022-10-13T20:44:10.768Z,57.72
2022-10-13T20:46:37.725Z,60.33
2022-10-13T20:49:10.953Z,54.30
2022-10-13T20:51:40.250Z,49.42
2022-10-13T20:54:07.623Z,54.00
2022-10-13T20:56:34.580Z,55.42
2022-10-13T20:59:07.928Z,46.35
2022-10-13T21:01:35.510Z,53.90
2022-10-13T21:04:02.958Z,45.38
2022-10-13T21:06:30.380Z,49.75
2022-10-13T21:09:00.797Z,45.22
2022-10-13T21:11:27.860Z,44.15
2022-10-13T21:13:54.663Z,43.95
2022-10-13T21:16:27.378Z,43.20
2022-10-13T21:18:56.874Z,45.90
2022-10-13T21:21:28.026Z,41.20
2022-10-13T21:24:00.921Z,44.78
2022-10-13T21:26:30.172Z,47.40
2022-10-13T21:28:57.536Z,42.22
2022-10-13T21:31:25.780Z,40.53
2022-10-13T21:33:53.833Z,45.88
2022-10-13T21:36:30.262Z,47.63
2022-10-13T21:39:00.815Z,50.90
2022-10-13T21:41:28.524Z,44.15
2022-10-13T21:43:56.149Z,45.97
2022-10-13T21:46:26.602Z,65.38
2022-10-13T21:48:56.563Z,45.83
2022-10-13T21:51:32.970Z,39.80
2022-10-13T21:56:57.469Z,40.30
2022-10-13T21:59:25.095Z,39.78
2022-10-13T22:01:52.048Z,42.00
2022-10-13T22:04:19.053Z,38.75
2022-10-13T22:06:45.839Z,40.45
2022-10-13T22:09:13.350Z,41.45
2022-10-13T22:11:41.987Z,38.05
2022-10-13T22:14:12.479Z,37.35
2022-10-13T22:16:44.882Z,39.92
2022-10-13T22:19:12.191Z,36.55
2022-10-13T22:21:49.384Z,44.28
2022-10-13T22:24:20.778Z,42.20
2022-10-13T22:26:50.250Z,35.08
2022-10-13T22:29:20.895Z,37.97
2022-10-13T22:31:49.120Z,40.45
2022-10-13T22:34:16.796Z,42.42
2022-10-13T22:36:45.246Z,40.30
2022-10-13T22:39:12.753Z,42.65
2022-10-13T22:41:39.932Z,42.67
2022-10-13T22:44:07.047Z,41.80
2022-10-13T22:46:37.508Z,38.95
2022-10-13T22:49:05.665Z,37.55
2022-10-13T22:51:35.080Z,36.95
2022-10-13T22:54:02.641Z,39.30
2022-10-13T22:56:33.109Z,37.05
2022-10-13T22:59:07.899Z,34.17
2022-10-13T23:01:35.560Z,37.15
2022-10-13T23:04:05.255Z,39.40
2022-10-13T23:06:34.110Z,35.70
2022-10-13T23:09:06.336Z,34.63
2022-10-13T23:11:33.813Z,37.92
2022-10-13T23:14:02.039Z,34.95
2022-10-13T23:16:29.401Z,40.42
2022-10-13T23:18:56.794Z,34.53
2022-10-13T23:21:27.105Z,34.00
2022-10-13T23:24:02.453Z,40.20
2022-10-13T23:26:30.153Z,32.05
2022-10-13T23:28:58.242Z,33.85
2022-10-13T23:31:26.732Z,38.30
2022-10-13T23:33:54.131Z,35.10
2022-10-13T23:42:10.171Z,31.35
2022-10-13T23:44:37.543Z,31.65
2022-10-13T23:47:05.193Z,37.88
2022-10-13T23:49:32.069Z,34.67
2022-10-13T23:52:24.017Z,35.97
2022-10-13T23:54:50.912Z,33.88
2022-10-13T23:57:19.151Z,36.28
2022-10-13T23:59:46.823Z,39.75
